createdAt,value
2023-04-27T00:00:17.946Z,8.17
2023-04-27T00:02:47.711Z,7.80
2023-04-27T00:05:20.861Z,9.32
2023-04-27T00:07:50.787Z,8.60
2023-04-27T00:10:20.466Z,8.80
2023-04-27T00:12:50.156Z,8.00
2023-04-27T00:15:19.843Z,8.45
2023-04-27T00:17:49.584Z,8.20
2023-04-27T00:20:22.011Z,7.90
2023-04-27T00:22:51.913Z,7.60
2023-04-27T00:25:21.602Z,8.20
2023-04-27T00:27:51.335Z,8.43
2023-04-27T00:30:21.139Z,8.32
2023-04-27T00:32:50.962Z,7.93
2023-04-27T00:35:23.430Z,8.50
2023-04-27T00:37:53.117Z,8.23
2023-04-27T00:40:23.649Z,7.78
2023-04-27T00:42:53.441Z,7.60
2023-04-27T00:45:23.224Z,7.40
2023-04-27T00:47:53.017Z,8.57
2023-04-27T00:50:31.290Z,8.23
2023-04-27T00:53:01.609Z,8.10
2023-04-27T00:55:31.400Z,8.55
2023-04-27T00:58:01.277Z,8.60
2023-04-27T01:00:31.178Z,8.90
2023-04-27T01:03:01.313Z,8.55
2023-04-27T01:05:34.124Z,8.43
2023-04-27T01:08:03.911Z,7.90
2023-04-27T01:10:33.597Z,8.90
2023-04-27T01:13:03.447Z,8.13
2023-04-27T01:15:34.221Z,8.45
2023-04-27T01:18:04.735Z,9.30
2023-04-27T01:20:38.942Z,7.90
2023-04-27T01:23:08.908Z,8.27
2023-04-27T01:25:41.345Z,8.18
2023-04-27T01:28:11.173Z,8.30
2023-04-27T01:30:40.804Z,8.60
2023-04-27T01:33:11.000Z,7.90
2023-04-27T01:35:40.730Z,8.07
2023-04-27T01:38:10.406Z,8.00
2023-04-27T01:40:42.990Z,8.63
2023-04-27T01:43:12.824Z,9.10
2023-04-27T01:45:42.524Z,8.77
2023-04-27T01:48:12.285Z,8.35
2023-04-27T01:50:41.933Z,8.30
2023-04-27T01:53:11.624Z,8.60
2023-04-27T01:55:43.936Z,8.48
2023-04-27T01:58:13.965Z,8.60
2023-04-27T02:00:44.667Z,8.27
2023-04-27T02:03:14.480Z,8.63
2023-04-27T02:05:44.588Z,8.63
2023-04-27T02:08:15.730Z,8.60
2023-04-27T02:10:48.172Z,8.77
2023-04-27T02:13:19.790Z,8.50
2023-04-27T02:15:49.738Z,8.18
2023-04-27T02:18:20.299Z,8.88
2023-04-27T02:20:50.158Z,9.23
2023-04-27T02:23:19.929Z,9.07
2023-04-27T02:25:52.270Z,8.10
2023-04-27T02:28:22.186Z,8.43
2023-04-27T02:30:52.442Z,9.07
2023-04-27T02:33:22.223Z,8.48
2023-04-27T02:35:51.849Z,9.10
2023-04-27T02:38:21.672Z,8.80
2023-04-27T02:40:58.653Z,8.90
2023-04-27T02:43:29.412Z,8.90
2023-04-27T02:45:59.509Z,8.57
2023-04-27T02:48:31.290Z,8.55
2023-04-27T02:51:01.191Z,9.15
2023-04-27T02:53:30.887Z,9.35
2023-04-27T02:56:03.526Z,9.00
2023-04-27T02:58:33.626Z,9.57
2023-04-27T03:01:03.277Z,8.75
2023-04-27T03:03:33.073Z,9.13
2023-04-27T03:06:03.798Z,9.57
2023-04-27T03:08:33.467Z,9.40
2023-04-27T03:11:05.956Z,8.63
2023-04-27T03:13:41.969Z,9.35
2023-04-27T03:16:13.058Z,9.30
2023-04-27T03:18:43.049Z,9.40
2023-04-27T03:21:13.307Z,8.73
2023-04-27T03:23:43.721Z,10.05
2023-04-27T03:26:16.935Z,9.73
2023-04-27T03:28:46.676Z,9.70
2023-04-27T03:31:17.605Z,9.65
2023-04-27T03:33:47.357Z,10.05
2023-04-27T03:36:18.357Z,9.30
2023-04-27T03:38:48.022Z,10.00
2023-04-27T03:41:20.584Z,9.30
2023-04-27T03:43:52.936Z,9.80
2023-04-27T03:46:22.722Z,9.40
2023-04-27T03:48:52.784Z,10.27
2023-04-27T03:51:22.710Z,9.50
2023-04-27T03:53:52.422Z,10.65
2023-04-27T03:56:24.714Z,9.45
2023-04-27T03:58:54.420Z,9.82
2023-04-27T04:01:30.951Z,9.73
2023-04-27T04:04:00.943Z,10.30
2023-04-27T04:06:31.259Z,10.00
2023-04-27T04:09:01.207Z,9.77
2023-04-27T04:11:34.019Z,8.95
2023-04-27T04:14:07.487Z,9.88
2023-04-27T04:16:37.236Z,9.55
2023-04-27T04:19:07.116Z,10.20
2023-04-27T04:21:36.902Z,10.70
2023-04-27T04:24:07.582Z,10.20
2023-04-27T04:26:40.270Z,9.30
2023-04-27T04:29:11.217Z,10.25
2023-04-27T04:31:41.612Z,10.43
2023-04-27T04:34:13.056Z,10.93
2023-04-27T04:36:43.558Z,9.82
2023-04-27T04:39:15.938Z,10.27
2023-04-27T04:41:49.523Z,9.90
2023-04-27T04:44:20.929Z,11.20
2023-04-27T04:46:51.364Z,10.80
2023-04-27T04:49:21.168Z,10.50
2023-04-27T04:51:53.086Z,10.20
2023-04-27T04:54:23.063Z,10.65
2023-04-27T04:56:55.483Z,11.55
2023-04-27T04:59:25.257Z,10.50
2023-04-27T05:01:56.053Z,11.40
2023-04-27T05:04:26.786Z,11.88
2023-04-27T05:06:56.658Z,10.20
2023-04-27T05:09:26.508Z,12.00
2023-04-27T05:11:58.881Z,12.70
2023-04-27T05:14:28.628Z,11.70
2023-04-27T05:16:58.286Z,12.30
2023-04-27T05:19:27.938Z,13.60
2023-04-27T05:21:57.668Z,13.10
2023-04-27T05:24:27.532Z,12.03
2023-04-27T05:27:02.145Z,13.68
2023-04-27T05:29:32.238Z,13.10
2023-04-27T05:32:02.130Z,12.77
2023-04-27T05:34:31.815Z,13.50
2023-04-27T05:37:01.472Z,13.27
2023-04-27T05:39:31.320Z,12.68
2023-04-27T05:42:03.676Z,14.32
2023-04-27T05:44:33.430Z,13.82
2023-04-27T05:47:03.190Z,13.40
2023-04-27T05:49:32.860Z,14.57
2023-04-27T05:52:02.469Z,14.03
2023-04-27T05:54:32.135Z,13.57
2023-04-27T05:57:04.473Z,14.00
2023-04-27T05:59:34.288Z,12.80
2023-04-27T06:02:04.154Z,13.90
2023-04-27T06:04:34.126Z,13.40
2023-04-27T06:07:04.227Z,14.00
2023-04-27T06:09:34.292Z,14.45
2023-04-27T06:12:06.711Z,13.27
2023-04-27T06:14:37.972Z,13.68
2023-04-27T06:17:07.749Z,14.27
2023-04-27T06:19:37.425Z,14.40
2023-04-27T06:22:07.232Z,15.25
2023-04-27T06:24:37.043Z,15.25
2023-04-27T06:27:09.429Z,14.57
2023-04-27T06:29:39.220Z,16.15
2023-04-27T06:32:08.944Z,15.07
2023-04-27T06:34:38.658Z,15.45
2023-04-27T06:37:08.290Z,14.52
2023-04-27T06:39:38.149Z,15.50
2023-04-27T06:42:10.565Z,14.70
2023-04-27T06:44:40.729Z,14.25
2023-04-27T06:47:11.004Z,12.07
2023-04-27T06:49:40.766Z,11.95
2023-04-27T06:52:10.466Z,10.73
2023-04-27T06:54:40.273Z,10.45
2023-04-27T06:57:12.694Z,10.23
2023-04-27T06:59:42.521Z,9.17
2023-04-27T07:02:12.192Z,9.75
2023-04-27T07:04:43.450Z,9.60
2023-04-27T07:07:13.400Z,8.40
2023-04-27T07:09:43.065Z,8.52
2023-04-27T07:12:15.402Z,8.57
2023-04-27T07:14:45.131Z,9.15
2023-04-27T07:17:14.784Z,7.97
2023-04-27T07:19:44.502Z,8.57
2023-04-27T07:22:16.155Z,8.20
2023-04-27T07:24:46.136Z,7.97
2023-04-27T07:27:18.521Z,8.20
2023-04-27T07:29:48.321Z,7.57
2023-04-27T07:32:18.113Z,8.20
2023-04-27T07:34:53.645Z,8.02
2023-04-27T07:37:24.230Z,7.88
2023-04-27T07:39:54.929Z,8.25
2023-04-27T07:42:27.303Z,7.60
2023-04-27T07:44:57.325Z,7.05
2023-04-27T07:47:27.217Z,7.63
2023-04-27T07:49:56.908Z,7.30
2023-04-27T07:52:26.608Z,7.47
2023-04-27T07:54:56.391Z,6.47
2023-04-27T07:57:28.711Z,6.90
2023-04-27T07:59:59.931Z,6.30
2023-04-27T08:02:31.850Z,6.10
2023-04-27T08:05:03.151Z,6.28
2023-04-27T08:07:35.330Z,6.15
2023-04-27T08:10:07.781Z,5.88
2023-04-27T08:12:40.048Z,6.40
2023-04-27T08:15:11.152Z,5.53
2023-04-27T08:17:42.061Z,5.45
2023-04-27T08:20:14.239Z,5.15
2023-04-27T08:22:44.322Z,5.50
2023-04-27T08:25:14.041Z,5.75
2023-04-27T08:27:46.287Z,5.68
2023-04-27T08:30:16.864Z,5.68
2023-04-27T08:32:46.616Z,5.10
2023-04-27T08:35:16.342Z,5.40
2023-04-27T08:37:46.573Z,5.27
2023-04-27T08:40:17.015Z,5.10
2023-04-27T08:42:57.807Z,5.40
2023-04-27T08:45:28.814Z,5.80
2023-04-27T08:47:58.702Z,4.80
2023-04-27T08:50:28.863Z,5.00
2023-04-27T08:52:58.509Z,4.95
2023-04-27T08:55:28.271Z,4.30
2023-04-27T08:58:01.818Z,4.80
2023-04-27T09:00:41.774Z,5.90
2023-04-27T09:03:17.156Z,5.10
2023-04-27T09:06:00.643Z,4.78
2023-04-27T09:08:44.535Z,5.53
2023-04-27T09:11:14.366Z,5.07
2023-04-27T09:13:47.134Z,5.00
2023-04-27T09:16:17.269Z,5.50
2023-04-27T09:18:47.531Z,5.40
2023-04-27T09:21:25.120Z,4.60
2023-04-27T09:23:55.167Z,4.90
2023-04-27T09:26:26.943Z,5.40
2023-04-27T09:28:59.819Z,5.40
2023-04-27T09:31:34.393Z,5.05
2023-04-27T09:34:04.666Z,5.45
2023-04-27T09:36:35.238Z,5.93
2023-04-27T09:39:07.104Z,5.40
2023-04-27T09:41:37.153Z,5.57
2023-04-27T09:44:10.541Z,4.88
2023-04-27T09:46:40.264Z,5.20
2023-04-27T09:49:10.106Z,5.30
2023-04-27T09:51:39.831Z,4.93
2023-04-27T09:54:11.228Z,5.40
2023-04-27T09:56:45.399Z,5.90
2023-04-27T09:59:34.098Z,5.40
2023-04-27T10:02:17.038Z,5.30
2023-04-27T10:05:09.078Z,5.53
2023-04-27T10:07:38.881Z,5.32
2023-04-27T10:10:09.635Z,5.28
2023-04-27T10:12:39.587Z,6.03
2023-04-27T10:15:19.673Z,5.88
2023-04-27T10:17:55.208Z,5.70
2023-04-27T10:20:32.268Z,6.05
2023-04-27T10:23:03.008Z,6.50
2023-04-27T10:25:40.524Z,6.05
2023-04-27T10:28:10.683Z,5.10
2023-04-27T10:30:49.121Z,6.50
2023-04-27T10:33:19.781Z,5.73
2023-04-27T10:35:57.706Z,5.80
2023-04-27T10:38:31.637Z,5.90
2023-04-27T10:41:02.857Z,5.47
2023-04-27T10:43:33.866Z,5.65
2023-04-27T10:46:16.804Z,5.70
2023-04-27T10:48:47.462Z,6.43
2023-04-27T10:51:19.088Z,5.88
2023-04-27T10:53:48.953Z,5.93
2023-04-27T10:56:18.690Z,5.63
2023-04-27T10:58:49.501Z,6.53
2023-04-27T11:01:29.976Z,4.90
2023-04-27T11:04:00.206Z,5.55
2023-04-27T11:06:32.275Z,5.60
2023-04-27T11:09:02.503Z,6.10
2023-04-27T11:11:32.378Z,5.25
2023-04-27T11:14:03.620Z,6.20
2023-04-27T11:16:36.386Z,5.35
2023-04-27T11:19:09.112Z,5.30
2023-04-27T11:21:39.047Z,4.90
2023-04-27T11:24:10.317Z,5.10
2023-04-27T11:26:40.789Z,4.40
2023-04-27T11:29:14.265Z,4.80
2023-04-27T11:31:49.463Z,4.32
2023-04-27T11:34:20.034Z,4.75
2023-04-27T11:37:10.642Z,4.50
2023-04-27T11:39:44.824Z,5.40
2023-04-27T11:42:19.336Z,5.18
2023-04-27T11:44:54.994Z,4.80
2023-04-27T11:47:28.359Z,4.70
2023-04-27T11:49:59.734Z,5.87
2023-04-27T11:52:31.995Z,6.20
2023-04-27T11:55:03.432Z,6.20
2023-04-27T11:57:35.055Z,6.00
2023-04-27T12:00:11.323Z,5.55
2023-04-27T12:02:47.853Z,5.57
2023-04-27T12:05:18.220Z,5.60
2023-04-27T12:07:47.959Z,5.47
2023-04-27T12:10:17.739Z,5.75
2023-04-27T12:12:47.670Z,5.60
2023-04-27T12:15:17.337Z,6.18
2023-04-27T12:17:49.671Z,6.05
2023-04-27T12:20:19.688Z,6.07
2023-04-27T12:22:49.337Z,5.68
2023-04-27T12:25:19.866Z,6.73
2023-04-27T12:27:50.222Z,6.05
2023-04-27T12:30:20.390Z,5.35
2023-04-27T12:32:52.744Z,6.27
2023-04-27T12:35:22.456Z,6.28
2023-04-27T12:37:52.893Z,5.70
2023-04-27T12:40:23.370Z,6.53
2023-04-27T12:42:53.181Z,5.85
2023-04-27T12:45:22.924Z,6.80
2023-04-27T12:48:03.501Z,6.53
2023-04-27T12:50:34.004Z,6.80
2023-04-27T12:53:03.710Z,6.30
2023-04-27T12:55:34.450Z,6.47
2023-04-27T12:58:04.872Z,7.22
2023-04-27T13:00:34.598Z,6.70
2023-04-27T13:03:07.909Z,6.00
2023-04-27T13:05:38.450Z,6.72
2023-04-27T13:08:08.284Z,7.00
2023-04-27T13:10:38.018Z,6.10
2023-04-27T13:13:07.988Z,6.72
2023-04-27T13:15:38.809Z,7.15
2023-04-27T13:18:11.657Z,7.23
2023-04-27T13:20:41.384Z,6.82
2023-04-27T13:23:11.237Z,7.18
2023-04-27T13:25:41.496Z,7.40
2023-04-27T13:28:11.210Z,6.20
2023-04-27T13:30:40.899Z,7.00
2023-04-27T13:33:22.750Z,5.97
2023-04-27T13:35:53.556Z,6.72
2023-04-27T13:38:23.400Z,6.87
2023-04-27T13:40:53.139Z,5.95
2023-04-27T13:43:22.903Z,5.97
2023-04-27T13:45:52.647Z,6.50
2023-04-27T13:48:25.275Z,7.50
2023-04-27T13:50:55.011Z,6.93
2023-04-27T13:53:25.933Z,6.72
2023-04-27T13:55:56.053Z,6.60
2023-04-27T13:58:26.426Z,6.28
2023-04-27T14:00:56.614Z,7.20
2023-04-27T14:03:29.780Z,7.07
2023-04-27T14:05:59.693Z,6.60
2023-04-27T14:08:29.351Z,6.50
2023-04-27T14:10:59.013Z,7.05
2023-04-27T14:13:28.709Z,6.70
2023-04-27T14:15:58.467Z,6.50
2023-04-27T14:18:32.793Z,6.57
2023-04-27T14:21:03.014Z,7.18
2023-04-27T14:23:33.110Z,8.00
2023-04-27T14:26:02.800Z,7.90
2023-04-27T14:28:32.639Z,7.03
2023-04-27T14:31:02.287Z,7.50
2023-04-27T14:33:34.735Z,7.68
2023-04-27T14:36:04.463Z,7.65
2023-04-27T14:38:34.214Z,7.20
2023-04-27T14:41:03.983Z,7.68
2023-04-27T14:43:33.697Z,7.70
2023-04-27T14:46:12.406Z,6.53
2023-04-27T14:48:52.677Z,7.03
2023-04-27T14:51:22.976Z,6.70
2023-04-27T14:53:52.765Z,8.77
2023-04-27T14:56:23.343Z,7.77
2023-04-27T14:58:53.104Z,7.10
2023-04-27T15:01:22.916Z,7.88
2023-04-27T15:03:55.529Z,8.52
2023-04-27T15:06:28.110Z,8.00
2023-04-27T15:08:57.856Z,8.63
2023-04-27T15:11:27.586Z,7.30
2023-04-27T15:13:57.321Z,7.88
2023-04-27T15:16:27.889Z,7.80
2023-04-27T15:19:00.168Z,7.38
2023-04-27T15:21:29.913Z,7.70
2023-04-27T15:23:59.845Z,7.57
2023-04-27T15:26:29.848Z,8.15
2023-04-27T15:29:00.108Z,8.30
2023-04-27T15:31:29.946Z,8.07
2023-04-27T15:34:02.411Z,7.38
2023-04-27T15:36:32.531Z,7.50
2023-04-27T15:39:02.216Z,7.47
2023-04-27T15:41:32.319Z,7.20
2023-04-27T15:44:02.054Z,7.22
2023-04-27T15:46:31.873Z,7.28
2023-04-27T15:49:04.508Z,8.45
2023-04-27T15:51:34.295Z,8.27
2023-04-27T15:54:03.982Z,7.13
2023-04-27T15:56:33.702Z,7.32
2023-04-27T15:59:03.897Z,6.35
2023-04-27T16:01:33.687Z,7.30
2023-04-27T16:04:06.402Z,8.07
2023-04-27T16:06:37.663Z,7.30
2023-04-27T16:09:10.562Z,7.90
2023-04-27T16:11:40.528Z,7.55
2023-04-27T16:14:10.184Z,7.40
2023-04-27T16:16:39.995Z,6.68
2023-04-27T16:19:12.928Z,7.50
2023-04-27T16:21:43.363Z,7.88
2023-04-27T16:24:13.249Z,7.20
2023-04-27T16:26:43.015Z,8.20
2023-04-27T16:29:13.009Z,7.70
2023-04-27T16:31:44.932Z,6.77
2023-04-27T16:34:17.395Z,6.97
2023-04-27T16:36:48.588Z,7.10
2023-04-27T16:39:19.462Z,6.88
2023-04-27T16:41:49.611Z,7.47
2023-04-27T16:44:19.305Z,7.05
2023-04-27T16:46:50.695Z,7.20
2023-04-27T16:49:23.005Z,7.63
2023-04-27T16:51:54.444Z,6.57
2023-04-27T16:54:24.239Z,7.10
2023-04-27T16:56:55.088Z,7.20
2023-04-27T16:59:25.039Z,6.95
2023-04-27T17:01:54.826Z,8.10
2023-04-27T17:04:27.428Z,6.93
2023-04-27T17:06:57.199Z,7.18
2023-04-27T17:09:26.834Z,7.50
2023-04-27T17:11:56.466Z,7.10
2023-04-27T17:14:26.522Z,6.93
2023-04-27T17:16:56.200Z,7.32
2023-04-27T17:19:28.660Z,6.80
2023-04-27T17:21:58.384Z,7.70
2023-04-27T17:24:28.138Z,7.50
2023-04-27T17:26:57.798Z,6.95
2023-04-27T17:29:27.491Z,7.60
2023-04-27T17:31:57.216Z,7.15
2023-04-27T17:34:29.570Z,7.50
2023-04-27T17:36:59.304Z,7.20
2023-04-27T17:39:28.956Z,7.03
2023-04-27T17:41:59.087Z,6.97
2023-04-27T17:44:28.812Z,7.85
2023-04-27T17:46:58.752Z,7.50
2023-04-27T17:49:31.597Z,7.95
2023-04-27T17:52:01.491Z,7.37
2023-04-27T17:54:31.164Z,7.00
2023-04-27T17:57:00.824Z,7.80
2023-04-27T17:59:30.625Z,7.13
2023-04-27T18:02:00.482Z,6.40
2023-04-27T18:04:33.040Z,8.05
2023-04-27T18:07:02.890Z,7.45
2023-04-27T18:09:33.124Z,7.22
2023-04-27T18:12:03.201Z,7.60
2023-04-27T18:14:32.985Z,6.70
2023-04-27T18:17:02.666Z,7.05
2023-04-27T18:19:34.963Z,7.10
2023-04-27T18:22:04.677Z,7.33
2023-04-27T18:24:34.387Z,7.40
2023-04-27T18:27:04.194Z,7.10
2023-04-27T18:29:35.028Z,7.75
2023-04-27T18:32:05.786Z,7.45
2023-04-27T18:34:38.412Z,8.18
2023-04-27T18:37:08.116Z,6.93
2023-04-27T18:39:37.894Z,7.35
2023-04-27T18:42:07.644Z,7.70
2023-04-27T18:44:37.411Z,7.70
2023-04-27T18:47:07.911Z,7.03
2023-04-27T18:49:40.380Z,7.32
2023-04-27T18:52:11.689Z,6.90
2023-04-27T18:54:42.244Z,7.22
2023-04-27T18:57:12.043Z,6.73
2023-04-27T18:59:41.987Z,7.22
2023-04-27T19:02:11.752Z,7.30
2023-04-27T19:04:52.833Z,6.72
2023-04-27T19:07:31.976Z,7.70
2023-04-27T19:10:01.858Z,7.30
2023-04-27T19:12:31.717Z,7.47
2023-04-27T19:15:01.458Z,7.85
2023-04-27T19:17:31.497Z,7.20
2023-04-27T19:20:03.925Z,7.45
2023-04-27T19:22:35.051Z,8.52
2023-04-27T19:25:04.791Z,7.40
2023-04-27T19:27:34.643Z,7.78
2023-04-27T19:30:04.512Z,7.00
2023-04-27T19:32:36.460Z,7.57
2023-04-27T19:35:12.513Z,7.95
2023-04-27T19:37:42.332Z,7.70
2023-04-27T19:40:13.694Z,7.50
2023-04-27T19:42:43.717Z,7.50
2023-04-27T19:45:13.759Z,8.33
2023-04-27T19:47:43.458Z,7.80
2023-04-27T19:50:16.228Z,7.90
2023-04-27T19:52:46.162Z,7.68
2023-04-27T19:55:15.902Z,7.38
2023-04-27T19:57:45.720Z,8.30
2023-04-27T20:00:16.352Z,7.97
2023-04-27T20:02:46.275Z,8.48
2023-04-27T20:05:19.211Z,8.03
2023-04-27T20:07:50.123Z,8.10
2023-04-27T20:10:19.944Z,8.55
2023-04-27T20:12:56.722Z,7.50
2023-04-27T20:15:27.510Z,7.73
2023-04-27T20:17:57.435Z,7.90
2023-04-27T20:20:29.880Z,7.80
2023-04-27T20:22:59.672Z,8.33
2023-04-27T20:25:29.687Z,8.93
2023-04-27T20:27:59.416Z,8.30
2023-04-27T20:30:29.927Z,7.95
2023-04-27T20:35:34.114Z,8.45
2023-04-27T20:38:03.818Z,8.20
2023-04-27T20:40:33.600Z,7.80
2023-04-27T20:43:04.444Z,8.13
2023-04-27T20:45:34.438Z,8.60
2023-04-27T20:48:04.369Z,8.18
2023-04-27T20:50:37.202Z,8.13
2023-04-27T20:53:07.210Z,8.93
2023-04-27T20:55:37.135Z,8.93
2023-04-27T20:58:06.794Z,8.75
2023-04-27T21:00:36.435Z,9.07
2023-04-27T21:03:07.334Z,9.32
2023-04-27T21:05:41.131Z,9.03
2023-04-27T21:08:10.979Z,8.57
2023-04-27T21:10:41.189Z,9.20
2023-04-27T21:13:11.027Z,9.15
2023-04-27T21:15:41.126Z,8.95
2023-04-27T21:18:18.831Z,8.35
2023-04-27T21:20:55.482Z,8.30
2023-04-27T21:23:25.334Z,7.88
2023-04-27T21:25:55.037Z,7.50
2023-04-27T21:28:25.044Z,8.32
2023-04-27T21:30:54.785Z,8.27
2023-04-27T21:33:24.481Z,8.27
2023-04-27T21:35:57.340Z,8.18
2023-04-27T21:38:27.187Z,7.85
2023-04-27T21:40:56.854Z,7.30
2023-04-27T21:43:26.536Z,7.75
2023-04-27T21:45:56.218Z,7.13
2023-04-27T21:48:26.233Z,7.60
2023-04-27T21:50:58.570Z,7.60
2023-04-27T21:53:28.317Z,7.97
2023-04-27T21:55:59.352Z,6.90
2023-04-27T21:58:29.122Z,7.28
2023-04-27T22:00:58.808Z,7.38
2023-04-27T22:03:28.763Z,8.07
2023-04-27T22:06:01.183Z,7.32
2023-04-27T22:08:31.142Z,7.97
2023-04-27T22:11:01.489Z,7.55
2023-04-27T22:13:31.497Z,7.82
2023-04-27T22:16:01.531Z,7.38
2023-04-27T22:18:31.693Z,7.50
2023-04-27T22:21:04.183Z,8.10
2023-04-27T22:23:34.599Z,8.55
2023-04-27T22:26:04.570Z,7.80
2023-04-27T22:28:34.334Z,8.07
2023-04-27T22:31:04.058Z,7.90
2023-04-27T22:33:34.106Z,8.05
2023-04-27T22:36:06.710Z,8.77
2023-04-27T22:38:36.535Z,8.10
2023-04-27T22:41:06.196Z,7.85
2023-04-27T22:43:36.060Z,8.20
2023-04-27T22:46:05.759Z,7.95
2023-04-27T22:48:35.464Z,8.90
2023-04-27T22:51:10.959Z,7.78
2023-04-27T22:53:40.840Z,7.70
2023-04-27T22:56:10.940Z,7.80
2023-04-27T22:58:40.905Z,7.80
2023-04-27T23:01:10.649Z,8.85
2023-04-27T23:03:40.403Z,8.43
2023-04-27T23:06:15.471Z,8.65
2023-04-27T23:08:47.198Z,8.20
2023-04-27T23:11:19.007Z,8.67
2023-04-27T23:13:50.696Z,7.97
2023-04-27T23:16:20.436Z,8.32
2023-04-27T23:18:50.937Z,8.77
2023-04-27T23:21:23.181Z,8.30
2023-04-27T23:23:52.847Z,8.53
2023-04-27T23:26:22.541Z,8.30
2023-04-27T23:28:52.435Z,8.70
2023-04-27T23:31:22.121Z,8.82
2023-04-27T23:33:52.315Z,9.40
2023-04-27T23:36:24.544Z,9.43
2023-04-27T23:38:54.301Z,8.95
2023-04-27T23:41:23.989Z,8.10
2023-04-27T23:43:53.707Z,9.23
2023-04-27T23:46:23.458Z,8.75
2023-04-27T23:48:53.171Z,10.40
2023-04-27T23:51:25.489Z,10.60
2023-04-27T23:53:55.480Z,10.65
2023-04-27T23:56:26.196Z,11.35
2023-04-27T23:58:55.931Z,10.82
